Time;durP1;ratioP1;P1;durP2;ratioP2;P2;SDS_P1;SDS_P2;PMS_P1;PMS_P2;Temp;Humidity;BMP_temperature;BMP_pressure;BME280_temperature;BME280_humidity;BME280_pressure;Samples;Min_cycle;Max_cycle;Signal;HPM_P1;HPM_P2
2022/10/12 00:00:57;;;;;;;;;;;;;;;;;;5019838;28;1148;-68
2022/10/12 00:03:23;;;;;;;;;;;;;;;;;;5018870;28;1899;-68
2022/10/12 00:05:58;;;;;;;;;;;;;;;;;;5019504;28;1208;-67
2022/10/12 00:08:24;;;;;;;;;;;;;;;;;;5036313;28;912;-67
2022/10/12 00:10:49;;;;;;;;;;;;;;;;;;5036828;28;888;-68
2022/10/12 00:13:14;;;;;;;;;;;;;;;;;;5036896;28;790;-68
2022/10/12 00:15:40;;;;;;;;;;;;;;;;;;5037103;28;1040;-66
2022/10/12 00:18:06;;;;;;;;;;;;;;;;;;5036724;28;1040;-68
2022/10/12 00:20:31;;;;;;;;;;;;;;;;;;5036584;28;1015;-67
2022/10/12 00:22:57;;;;;;;;;;;;;;;;;;5035147;28;1902;-67
2022/10/12 00:25:22;;;;;;;;;;;;;;;;;;5036243;28;1042;-67
2022/10/12 00:27:47;;;;;;;;;;;;;;;;;;5018903;28;1299;-67
2022/10/12 00:30:12;;;;;;;;;;;;;;;;;;5034782;28;1224;-68
2022/10/12 00:32:37;;;;;;;;;;;;;;;;;;5017542;28;1176;-67
2022/10/12 00:35:03;;;;;;;;;;;;;;;;;;5032061;28;1165;-68
2022/10/12 00:37:29;;;;;;;;;;;;;;;;;;5014298;28;1162;-67
2022/10/12 00:39:54;;;;;;;;;;;;;;;;;;5015680;28;1284;-67
2022/10/12 00:42:19;;;;;;;;;;;;;;;;;;5030818;28;1908;-67
2022/10/12 00:44:46;;;;;;;;;;;;;;;;;;5015494;28;1228;-67
2022/10/12 00:47:31;;;;;;;;;;;;;;;;;;5033521;28;1054;-67
2022/10/12 00:50:03;;;;;;;;;;;;;;;;;;5033260;28;1229;-66
2022/10/12 00:52:36;;;;;;;;;;;;;;;;;;5032694;28;896;-66
2022/10/12 00:55:02;;;;;;;;;;;;;;;;;;5033385;28;1226;-66
2022/10/12 00:57:28;;;;;;;;;;;;;;;;;;5012292;28;3566;-66
2022/10/12 01:00:01;;;;;;;;;;;;;;;;;;5023649;28;3306;-67
2022/10/12 01:02:28;;;;;;;;;;;;;;;;;;5013087;28;1875;-67
2022/10/12 01:04:54;;;;;;;;;;;;;;;;;;5012027;28;1309;-67
2022/10/12 01:07:19;;;;;;;;;;;;;;;;;;5011500;28;1204;-67
2022/10/12 01:09:45;;;;;;;;;;;;;;;;;;4995603;28;1173;-67
2022/10/12 01:12:10;;;;;;;;;;;;;;;;;;5012955;28;830;-67
2022/10/12 01:14:35;;;;;;;;;;;;;;;;;;5028013;28;1216;-68
2022/10/12 01:17:12;;;;;;;;;;;;;;;;;;5028105;28;1338;-67
2022/10/12 01:19:49;;;;;;;;;;;;;;;;;;5028463;28;1189;-67
2022/10/12 01:22:18;;;;;;;;;;;;;;;;;;5011413;28;1955;-67
2022/10/12 01:24:50;;;;;;;;;;;;;;;;;;5013913;28;850;-67
2022/10/12 01:27:34;;;;;;;;;;;;;;;;;;5012955;28;900;-68
2022/10/12 01:30:19;;;;;;;;;;;;;;;;;;4995960;28;1240;-68
2022/10/12 01:33:00;;;;;;;;;;;;;;;;;;5028718;28;1201;-67
2022/10/12 01:35:25;;;;;;;;;;;;;;;;;;5012430;28;920;-67
2022/10/12 01:38:11;;;;;;;;;;;;;;;;;;4994675;28;1466;-67
2022/10/12 01:40:52;;;;;;;;;;;;;;;;;;5011764;28;1055;-67
2022/10/12 01:43:19;;;;;;;;;;;;;;;;;;5012014;28;1910;-67
2022/10/12 01:45:44;;;;;;;;;;;;;;;;;;5012841;28;920;-67
2022/10/12 01:48:09;;;;;;;;;;;;;;;;;;5011184;28;941;-67
2022/10/12 01:50:47;;;;;;;;;;;;;;;;;;5027116;28;1317;-67
2022/10/12 01:53:20;;;;;;;;;;;;;;;;;;5012249;28;842;-67
2022/10/12 01:56:04;;;;;;;;;;;;;;;;;;5012242;28;913;-67
2022/10/12 01:58:37;;;;;;;;;;;;;;;;;;5011679;28;825;-67
2022/10/12 02:01:02;;;;;;;;;;;;;;;;;;5012119;28;960;-67
2022/10/12 02:03:35;;;;;;;;;;;;;;;;;;5011800;28;1957;-67
2022/10/12 02:06:08;;;;;;;;;;;;;;;;;;5010960;28;1345;-67
2022/10/12 02:08:40;;;;;;;;;;;;;;;;;;5011659;28;921;-67
2022/10/12 02:11:13;;;;;;;;;;;;;;;;;;5011987;28;807;-67
2022/10/12 02:13:44;;;;;;;;;;;;;;;;;;5011752;28;854;-67
2022/10/12 02:16:12;;;;;;;;;;;;;;;;;;5011906;28;1038;-67
2022/10/12 02:18:41;;;;;;;;;;;;;;;;;;5010294;28;1250;-67
2022/10/12 02:21:07;;;;;;;;;;;;;;;;;;5032919;28;1961;-67
2022/10/12 02:23:33;;;;;;;;;;;;;;;;;;5028440;28;1202;-67
2022/10/12 02:26:00;;;;;;;;;;;;;;;;;;5011434;28;1194;-68
2022/10/12 02:28:26;;;;;;;;;;;;;;;;;;5011741;28;1316;-67
2022/10/12 02:30:56;;;;;;;;;;;;;;;;;;5031260;28;1173;-68
2022/10/12 02:33:28;;;;;;;;;;;;;;;;;;5030816;28;1243;-68
2022/10/12 02:36:01;;;;;;;;;;;;;;;;;;5031013;28;1242;-68
2022/10/12 02:38:32;;;;;;;;;;;;;;;;;;5030955;28;868;-68
2022/10/12 02:41:00;;;;;;;;;;;;;;;;;;5030987;28;853;-68
2022/10/12 02:43:44;;;;;;;;;;;;;;;;;;5030423;28;1914;-68
2022/10/12 02:46:10;;;;;;;;;;;;;;;;;;5029918;28;3525;-68
2022/10/12 02:48:37;;;;;;;;;;;;;;;;;;5030503;28;817;-68
2022/10/12 02:51:02;;;;;;;;;;;;;;;;;;5031085;28;912;-68
2022/10/12 02:53:29;;;;;;;;;;;;;;;;;;5030693;28;912;-67
2022/10/12 02:55:59;;;;;;;;;;;;;;;;;;5046980;28;884;-68
2022/10/12 02:58:24;;;;;;;;;;;;;;;;;;5030480;28;920;-68
2022/10/12 03:00:50;;;;;;;;;;;;;;;;;;5030363;28;1320;-68
2022/10/12 03:03:15;;;;;;;;;;;;;;;;;;5031265;28;1898;-67
2022/10/12 03:05:41;;;;;;;;;;;;;;;;;;5014115;28;1297;-68
2022/10/12 03:08:06;;;;;;;;;;;;;;;;;;5030134;28;1074;-68
2022/10/12 03:10:31;;;;;;;;;;;;;;;;;;5030844;28;794;-68
2022/10/12 03:12:56;;;;;;;;;;;;;;;;;;5030777;28;888;-68
2022/10/12 03:15:22;;;;;;;;;;;;;;;;;;5030128;28;1013;-68
2022/10/12 03:17:47;;;;;;;;;;;;;;;;;;5046287;28;1298;-68
2022/10/12 03:20:12;;;;;;;;;;;;;;;;;;5046340;28;872;-68
2022/10/12 03:22:37;;;;;;;;;;;;;;;;;;5008911;28;1894;-67
2022/10/12 03:25:03;;;;;;;;;;;;;;;;;;5010144;28;905;-68
2022/10/12 03:27:28;;;;;;;;;;;;;;;;;;5009123;28;806;-68
2022/10/12 03:29:53;;;;;;;;;;;;;;;;;;5009469;28;826;-68
2022/10/12 03:32:19;;;;;;;;;;;;;;;;;;5009342;28;1160;-67
2022/10/12 03:34:44;;;;;;;;;;;;;;;;;;5011075;28;853;-68
2022/10/12 03:37:09;;;;;;;;;;;;;;;;;;5009937;28;1275;-68
2022/10/12 03:39:35;;;;;;;;;;;;;;;;;;5008953;28;1227;-68
2022/10/12 03:42:00;;;;;;;;;;;;;;;;;;5010754;28;1907;-68
2022/10/12 03:44:25;;;;;;;;;;;;;;;;;;5010437;28;821;-68
2022/10/12 03:46:51;;;;;;;;;;;;;;;;;;5009442;28;964;-67
2022/10/12 03:49:16;;;;;;;;;;;;;;;;;;5011370;28;1000;-68
2022/10/12 03:51:41;;;;;;;;;;;;;;;;;;5009259;28;1110;-67
2022/10/12 03:54:06;;;;;;;;;;;;;;;;;;5010751;28;834;-68
2022/10/12 03:56:32;;;;;;;;;;;;;;;;;;5010156;28;924;-67
2022/10/12 03:58:57;;;;;;;;;;;;;;;;;;4993057;28;1242;-68
2022/10/12 04:01:22;;;;;;;;;;;;;;;;;;5009844;28;1956;-68
2022/10/12 04:03:47;;;;;;;;;;;;;;;;;;5010842;28;885;-67
2022/10/12 04:06:13;;;;;;;;;;;;;;;;;;4992919;28;1274;-67
2022/10/12 04:08:38;;;;;;;;;;;;;;;;;;5009880;28;834;-68
2022/10/12 04:11:03;;;;;;;;;;;;;;;;;;5012200;28;984;-68
2022/10/12 04:13:29;;;;;;;;;;;;;;;;;;4996201;28;1152;-68
2022/10/12 04:15:54;;;;;;;;;;;;;;;;;;5014318;28;931;-68
2022/10/12 04:18:19;;;;;;;;;;;;;;;;;;5012783;28;1287;-68
2022/10/12 04:20:48;;;;;;;;;;;;;;;;;;5014064;28;767;-68
2022/10/12 04:23:14;;;;;;;;;;;;;;;;;;5026235;28;1948;-68
2022/10/12 04:25:39;;;;;;;;;;;;;;;;;;5048878;28;837;-67
2022/10/12 04:28:04;;;;;;;;;;;;;;;;;;5034310;28;1054;-68
2022/10/12 04:30:31;;;;;;;;;;;;;;;;;;5033948;28;899;-68
2022/10/12 04:32:57;;;;;;;;;;;;;;;;;;5034269;28;829;-67
2022/10/12 04:35:22;;;;;;;;;;;;;;;;;;5032675;28;3666;-68
2022/10/12 04:37:47;;;;;;;;;;;;;;;;;;5049587;28;813;-68
2022/10/12 04:40:12;;;;;;;;;;;;;;;;;;5034594;28;880;-68
2022/10/12 04:42:38;;;;;;;;;;;;;;;;;;5048557;28;1915;-67
2022/10/12 04:45:03;;;;;;;;;;;;;;;;;;5047040;28;1192;-68
2022/10/12 04:47:28;;;;;;;;;;;;;;;;;;5030311;28;1173;-67
2022/10/12 04:49:54;;;;;;;;;;;;;;;;;;5013422;28;1335;-67
2022/10/12 04:52:19;;;;;;;;;;;;;;;;;;5031005;28;1319;-67
2022/10/12 04:54:44;;;;;;;;;;;;;;;;;;5030518;28;1145;-67
2022/10/12 04:57:09;;;;;;;;;;;;;;;;;;5032757;28;1232;-68
2022/10/12 04:59:35;;;;;;;;;;;;;;;;;;5032580;28;904;-67
2022/10/12 05:02:00;;;;;;;;;;;;;;;;;;5015233;28;1920;-67
2022/10/12 05:04:25;;;;;;;;;;;;;;;;;;5032712;28;837;-67
2022/10/12 05:06:51;;;;;;;;;;;;;;;;;;5014083;28;1188;-68
2022/10/12 05:09:16;;;;;;;;;;;;;;;;;;5013433;28;1178;-68
2022/10/12 05:11:41;;;;;;;;;;;;;;;;;;5032320;28;1157;-67
2022/10/12 05:14:07;;;;;;;;;;;;;;;;;;5015092;28;1094;-68
2022/10/12 05:16:33;;;;;;;;;;;;;;;;;;5014429;28;1428;-67
2022/10/12 05:18:58;;;;;;;;;;;;;;;;;;5031615;28;912;-68
2022/10/12 05:21:23;;;;;;;;;;;;;;;;;;5031509;28;1964;-68
2022/10/12 05:23:49;;;;;;;;;;;;;;;;;;5014776;28;1310;-67
2022/10/12 05:26:15;;;;;;;;;;;;;;;;;;5032677;28;892;-67
2022/10/12 05:28:40;;;;;;;;;;;;;;;;;;5032640;28;817;-68
2022/10/12 05:31:05;;;;;;;;;;;;;;;;;;5015119;28;1204;-67
2022/10/12 05:33:30;;;;;;;;;;;;;;;;;;5031904;28;1047;-68
2022/10/12 05:35:56;;;;;;;;;;;;;;;;;;5031271;28;1058;-67
2022/10/12 05:38:21;;;;;;;;;;;;;;;;;;5032352;28;825;-67
2022/10/12 05:40:46;;;;;;;;;;;;;;;;;;5031271;28;893;-67
2022/10/12 05:43:11;;;;;;;;;;;;;;;;;;5031027;28;1967;-67
2022/10/12 05:45:37;;;;;;;;;;;;;;;;;;5030360;28;1086;-67
2022/10/12 05:48:02;;;;;;;;;;;;;;;;;;5032467;28;857;-67
2022/10/12 05:50:28;;;;;;;;;;;;;;;;;;5032457;28;955;-67
2022/10/12 05:52:53;;;;;;;;;;;;;;;;;;5033130;28;857;-67
2022/10/12 05:55:18;;;;;;;;;;;;;;;;;;5032270;28;821;-67
2022/10/12 05:57:44;;;;;;;;;;;;;;;;;;5014808;28;1196;-67
2022/10/12 06:00:09;;;;;;;;;;;;;;;;;;5014975;28;1205;-68
2022/10/12 06:02:34;;;;;;;;;;;;;;;;;;5014259;28;1957;-68
2022/10/12 06:05:00;;;;;;;;;;;;;;;;;;5030263;28;1200;-68
2022/10/12 06:07:26;;;;;;;;;;;;;;;;;;5016480;28;3287;-68
2022/10/12 06:09:51;;;;;;;;;;;;;;;;;;5012027;28;837;-69
2022/10/12 06:12:17;;;;;;;;;;;;;;;;;;5011984;28;925;-69
2022/10/12 06:14:42;;;;;;;;;;;;;;;;;;5011539;28;913;-68
2022/10/12 06:17:08;;;;;;;;;;;;;;;;;;5011740;28;913;-69
2022/10/12 06:19:34;;;;;;;;;;;;;;;;;;5010296;28;799;-69
2022/10/12 06:21:59;;;;;;;;;;;;;;;;;;5011411;28;2263;-69
2022/10/12 06:24:25;;;;;;;;;;;;;;;;;;5012112;28;923;-69
2022/10/12 06:26:50;;;;;;;;;;;;;;;;;;5010156;28;1312;-69
2022/10/12 06:29:16;;;;;;;;;;;;;;;;;;5012093;28;825;-69
2022/10/12 06:31:41;;;;;;;;;;;;;;;;;;5009249;28;1204;-69
2022/10/12 06:34:07;;;;;;;;;;;;;;;;;;5009762;28;1216;-69
2022/10/12 06:36:32;;;;;;;;;;;;;;;;;;5010272;28;904;-69
2022/10/12 06:38:57;;;;;;;;;;;;;;;;;;5010350;28;889;-68
2022/10/12 06:41:23;;;;;;;;;;;;;;;;;;4993386;28;1969;-68
2022/10/12 06:43:48;;;;;;;;;;;;;;;;;;5011116;28;911;-69
2022/10/12 06:46:14;;;;;;;;;;;;;;;;;;5011751;28;853;-69
2022/10/12 06:48:39;;;;;;;;;;;;;;;;;;5009893;28;1282;-69
2022/10/12 06:51:04;;;;;;;;;;;;;;;;;;5011552;28;995;-68
2022/10/12 06:53:31;;;;;;;;;;;;;;;;;;5011196;28;1003;-68
2022/10/12 06:55:57;;;;;;;;;;;;;;;;;;5009917;28;1420;-68
2022/10/12 06:58:22;;;;;;;;;;;;;;;;;;5009760;28;1288;-69
2022/10/12 07:00:47;;;;;;;;;;;;;;;;;;5010051;28;1182;-69
2022/10/12 07:03:13;;;;;;;;;;;;;;;;;;5009619;28;1910;-69
2022/10/12 07:05:38;;;;;;;;;;;;;;;;;;5010847;28;3505;-69
2022/10/12 07:08:04;;;;;;;;;;;;;;;;;;5011281;28;952;-69
2022/10/12 07:10:29;;;;;;;;;;;;;;;;;;5010515;28;877;-69
2022/10/12 07:12:54;;;;;;;;;;;;;;;;;;5010994;28;925;-69
2022/10/12 07:15:20;;;;;;;;;;;;;;;;;;5028137;28;1168;-68
2022/10/12 07:17:45;;;;;;;;;;;;;;;;;;5017054;28;908;-69
2022/10/12 07:20:10;;;;;;;;;;;;;;;;;;5018365;28;829;-68
2022/10/12 07:22:36;;;;;;;;;;;;;;;;;;5017970;28;1965;-68
2022/10/12 07:25:01;;;;;;;;;;;;;;;;;;5018808;28;838;-68
2022/10/12 07:27:26;;;;;;;;;;;;;;;;;;5018443;28;896;-69
2022/10/12 07:29:51;;;;;;;;;;;;;;;;;;5015371;28;869;-68
2022/10/12 07:32:17;;;;;;;;;;;;;;;;;;5015904;28;908;-68
2022/10/12 07:34:43;;;;;;;;;;;;;;;;;;5014932;28;900;-68
2022/10/12 07:37:08;;;;;;;;;;;;;;;;;;5018324;28;946;-68
2022/10/12 07:39:34;;;;;;;;;;;;;;;;;;5015809;28;1004;-68
2022/10/12 07:41:59;;;;;;;;;;;;;;;;;;5016093;28;1910;-67
2022/10/12 07:44:24;;;;;;;;;;;;;;;;;;5033180;28;1223;-67
2022/10/12 07:46:50;;;;;;;;;;;;;;;;;;5036627;28;1320;-68
2022/10/12 07:49:15;;;;;;;;;;;;;;;;;;5019358;28;1260;-67
2022/10/12 07:51:41;;;;;;;;;;;;;;;;;;5018498;28;912;-67
2022/10/12 07:54:06;;;;;;;;;;;;;;;;;;5035408;28;865;-69
2022/10/12 07:56:32;;;;;;;;;;;;;;;;;;5023931;28;1095;-70
2022/10/12 07:58:57;;;;;;;;;;;;;;;;;;5020210;28;1209;-71
2022/10/12 08:01:24;;;;;;;;;;;;;;;;;;5020150;28;1898;-70
2022/10/12 08:03:50;;;;;;;;;;;;;;;;;;5017145;28;2013;-69
2022/10/12 08:06:17;;;;;;;;;;;;;;;;;;5014998;28;1323;-70
2022/10/12 08:08:42;;;;;;;;;;;;;;;;;;5014069;28;1494;-70
2022/10/12 08:11:08;;;;;;;;;;;;;;;;;;5012992;28;1149;-68
2022/10/12 08:13:34;;;;;;;;;;;;;;;;;;5011780;28;1283;-68
2022/10/12 08:16:00;;;;;;;;;;;;;;;;;;5011911;28;1959;-69
2022/10/12 08:18:26;;;;;;;;;;;;;;;;;;5014052;28;960;-68
2022/10/12 08:20:51;;;;;;;;;;;;;;;;;;5013050;28;1881;-68
2022/10/12 08:23:16;;;;;;;;;;;;;;;;;;5014288;28;1940;-68
2022/10/12 08:25:42;;;;;;;;;;;;;;;;;;5030202;28;849;-69
2022/10/12 08:28:08;;;;;;;;;;;;;;;;;;5015225;28;782;-68
2022/10/12 08:30:33;;;;;;;;;;;;;;;;;;5029469;28;1212;-69
2022/10/12 08:32:58;;;;;;;;;;;;;;;;;;5014645;28;818;-68
2022/10/12 08:35:24;;;;;;;;;;;;;;;;;;5013930;28;1039;-68
2022/10/12 08:37:49;;;;;;;;;;;;;;;;;;5013291;28;1257;-68
2022/10/12 08:40:24;;;;;;;;;;;;;;;;;;5030315;28;1276;-69
2022/10/12 08:43:02;;;;;;;;;;;;;;;;;;5013485;28;1914;-68
2022/10/12 08:45:36;;;;;;;;;;;;;;;;;;5014090;28;896;-69
2022/10/12 08:48:16;;;;;;;;;;;;;;;;;;5014655;28;856;-69
2022/10/12 08:50:48;;;;;;;;;;;;;;;;;;5013279;28;1019;-69
2022/10/12 08:53:18;;;;;;;;;;;;;;;;;;5012546;28;1351;-69
2022/10/12 08:55:44;;;;;;;;;;;;;;;;;;5018179;28;3097;-69
2022/10/12 08:58:13;;;;;;;;;;;;;;;;;;5020258;28;904;-70
2022/10/12 09:00:39;;;;;;;;;;;;;;;;;;5013866;28;813;-70
2022/10/12 09:03:07;;;;;;;;;;;;;;;;;;5014030;28;1938;-68
2022/10/12 09:05:36;;;;;;;;;;;;;;;;;;4995617;28;1229;-68
2022/10/12 09:08:09;;;;;;;;;;;;;;;;;;5013493;28;814;-68
2022/10/12 09:10:41;;;;;;;;;;;;;;;;;;5013377;28;884;-69
2022/10/12 09:13:19;;;;;;;;;;;;;;;;;;4995730;28;1200;-69
2022/10/12 09:15:58;;;;;;;;;;;;;;;;;;5013311;28;928;-69
2022/10/12 09:18:31;;;;;;;;;;;;;;;;;;5013345;28;813;-68
2022/10/12 09:20:58;;;;;;;;;;;;;;;;;;5013571;28;881;-69
2022/10/12 09:23:24;;;;;;;;;;;;;;;;;;5028219;28;2001;-69
2022/10/12 09:25:52;;;;;;;;;;;;;;;;;;5013629;28;810;-69
2022/10/12 09:28:35;;;;;;;;;;;;;;;;;;5013800;28;881;-69
2022/10/12 09:31:19;;;;;;;;;;;;;;;;;;5013120;28;853;-69
2022/10/12 09:33:50;;;;;;;;;;;;;;;;;;5005419;28;3649;-69
2022/10/12 09:36:18;;;;;;;;;;;;;;;;;;5032288;28;959;-69
2022/10/12 09:38:44;;;;;;;;;;;;;;;;;;5032643;28;824;-69
2022/10/12 09:41:19;;;;;;;;;;;;;;;;;;5033302;28;926;-70
2022/10/12 09:43:44;;;;;;;;;;;;;;;;;;5014600;28;2033;-69
2022/10/12 09:46:13;;;;;;;;;;;;;;;;;;5032932;28;845;-69
2022/10/12 09:48:54;;;;;;;;;;;;;;;;;;5015625;28;1276;-69
2022/10/12 09:51:19;;;;;;;;;;;;;;;;;;5032471;28;966;-68
2022/10/12 09:53:48;;;;;;;;;;;;;;;;;;5048132;28;845;-68
2022/10/12 09:56:25;;;;;;;;;;;;;;;;;;5032458;28;858;-70
2022/10/12 09:58:53;;;;;;;;;;;;;;;;;;5032787;28;826;-69
2022/10/12 10:01:23;;;;;;;;;;;;;;;;;;5032889;28;833;-70
2022/10/12 10:04:04;;;;;;;;;;;;;;;;;;5015444;28;1906;-69
2022/10/12 10:06:29;;;;;;;;;;;;;;;;;;5033177;28;911;-69
2022/10/12 10:08:55;;;;;;;;;;;;;;;;;;5047541;28;958;-69
2022/10/12 10:11:22;;;;;;;;;;;;;;;;;;5032717;28;887;-68
2022/10/12 10:13:51;;;;;;;;;;;;;;;;;;5015280;28;1486;-69
2022/10/12 10:16:17;;;;;;;;;;;;;;;;;;5014334;28;1360;-69
2022/10/12 10:18:42;;;;;;;;;;;;;;;;;;5030735;28;1223;-69
2022/10/12 10:21:10;;;;;;;;;;;;;;;;;;5032380;28;932;-69
2022/10/12 10:23:41;;;;;;;;;;;;;;;;;;5031597;28;1902;-69
2022/10/12 10:26:10;;;;;;;;;;;;;;;;;;5047281;28;1331;-69
2022/10/12 10:28:36;;;;;;;;;;;;;;;;;;5031682;28;877;-69
2022/10/12 10:31:03;;;;;;;;;;;;;;;;;;5013846;28;1240;-69
2022/10/12 10:33:30;;;;;;;;;;;;;;;;;;5013637;28;1437;-69
2022/10/12 10:36:01;;;;;;;;;;;;;;;;;;5031545;28;857;-68
2022/10/12 10:38:27;;;;;;;;;;;;;;;;;;5031000;28;915;-69
2022/10/12 10:40:54;;;;;;;;;;;;;;;;;;5013623;28;1192;-69
2022/10/12 10:43:23;;;;;;;;;;;;;;;;;;5013310;28;1918;-69
2022/10/12 10:45:50;;;;;;;;;;;;;;;;;;5031491;28;884;-68
2022/10/12 10:48:19;;;;;;;;;;;;;;;;;;5031342;28;936;-68
2022/10/12 10:50:50;;;;;;;;;;;;;;;;;;5013210;28;1177;-69
2022/10/12 10:53:20;;;;;;;;;;;;;;;;;;5031452;28;853;-68
2022/10/12 10:56:04;;;;;;;;;;;;;;;;;;5030687;28;858;-68
2022/10/12 10:58:56;;;;;;;;;;;;;;;;;;5030789;28;885;-69
2022/10/12 11:01:30;;;;;;;;;;;;;;;;;;5012976;28;1191;-68
2022/10/12 11:04:00;;;;;;;;;;;;;;;;;;5031274;28;949;-68
2022/10/12 11:06:32;;;;;;;;;;;;;;;;;;5030370;28;873;-68
2022/10/12 11:09:15;;;;;;;;;;;;;;;;;;5031519;28;892;-69
2022/10/12 11:11:42;;;;;;;;;;;;;;;;;;5024442;28;4115;-68
2022/10/12 11:14:14;;;;;;;;;;;;;;;;;;5011402;28;3661;-68
2022/10/12 11:16:42;;;;;;;;;;;;;;;;;;5013054;28;3562;-68
2022/10/12 11:19:10;;;;;;;;;;;;;;;;;;5029561;28;972;-68
2022/10/12 11:21:44;;;;;;;;;;;;;;;;;;5030317;28;1970;-68
2022/10/12 11:24:23;;;;;;;;;;;;;;;;;;5030655;28;873;-69
2022/10/12 11:26:52;;;;;;;;;;;;;;;;;;5013466;28;900;-69
2022/10/12 11:29:18;;;;;;;;;;;;;;;;;;5014265;28;4072;-69
2022/10/12 11:31:55;;;;;;;;;;;;;;;;;;5029896;28;3506;-69
2022/10/12 11:34:22;;;;;;;;;;;;;;;;;;5030839;28;853;-68
2022/10/12 11:36:50;;;;;;;;;;;;;;;;;;5012527;28;3656;-68
2022/10/12 11:39:35;;;;;;;;;;;;;;;;;;5011997;28;861;-68
2022/10/12 11:42:01;;;;;;;;;;;;;;;;;;5023511;28;4290;-69
2022/10/12 11:44:32;;;;;;;;;;;;;;;;;;5004761;28;3657;-68
2022/10/12 11:47:00;;;;;;;;;;;;;;;;;;5014205;28;1272;-69
2022/10/12 11:49:32;;;;;;;;;;;;;;;;;;5030326;28;3664;-68
2022/10/12 11:51:59;;;;;;;;;;;;;;;;;;5031753;28;988;-68
2022/10/12 11:54:25;;;;;;;;;;;;;;;;;;5029504;28;1229;-69
2022/10/12 11:56:53;;;;;;;;;;;;;;;;;;5030976;28;892;-68
2022/10/12 11:59:18;;;;;;;;;;;;;;;;;;5012695;28;1193;-68
2022/10/12 12:02:03;;;;;;;;;;;;;;;;;;5012408;28;2231;-71
2022/10/12 12:04:34;;;;;;;;;;;;;;;;;;5030159;28;903;-69
2022/10/12 12:07:05;;;;;;;;;;;;;;;;;;5013298;28;1209;-70
2022/10/12 12:09:36;;;;;;;;;;;;;;;;;;5012917;28;1288;-64
2022/10/12 12:12:09;;;;;;;;;;;;;;;;;;5029320;28;1303;-67
2022/10/12 12:14:45;;;;;;;;;;;;;;;;;;5030008;28;1200;-67
2022/10/12 12:17:21;;;;;;;;;;;;;;;;;;5012867;28;2021;-67
2022/10/12 12:19:53;;;;;;;;;;;;;;;;;;5027265;28;3769;-67
2022/10/12 12:22:30;;;;;;;;;;;;;;;;;;5010395;28;1908;-67
2022/10/12 12:25:09;;;;;;;;;;;;;;;;;;4992678;28;1419;-66
2022/10/12 12:27:48;;;;;;;;;;;;;;;;;;5010047;28;846;-67
2022/10/12 12:30:17;;;;;;;;;;;;;;;;;;4992759;28;1206;-72
2022/10/12 12:32:50;;;;;;;;;;;;;;;;;;5013137;28;891;-73
2022/10/12 12:35:24;;;;;;;;;;;;;;;;;;5014432;28;968;-72
2022/10/12 12:37:49;;;;;;;;;;;;;;;;;;5014282;28;830;-73
2022/10/12 12:40:22;;;;;;;;;;;;;;;;;;5014830;28;933;-73
2022/10/12 12:42:47;;;;;;;;;;;;;;;;;;5013925;28;1914;-73
2022/10/12 12:45:31;;;;;;;;;;;;;;;;;;5012938;28;1292;-73
2022/10/12 12:47:56;;;;;;;;;;;;;;;;;;5014421;28;783;-73
2022/10/12 12:50:30;;;;;;;;;;;;;;;;;;5013992;28;881;-73
2022/10/12 12:53:01;;;;;;;;;;;;;;;;;;5014625;28;916;-72
2022/10/12 12:55:44;;;;;;;;;;;;;;;;;;4996584;28;1264;-71
2022/10/12 12:58:29;;;;;;;;;;;;;;;;;;4997411;28;1464;-72
2022/10/12 13:01:09;;;;;;;;;;;;;;;;;;4996604;28;1197;-73
2022/10/12 13:03:40;;;;;;;;;;;;;;;;;;5013265;28;1971;-72
2022/10/12 13:06:24;;;;;;;;;;;;;;;;;;5001890;28;3793;-74
2022/10/12 13:08:49;;;;;;;;;;;;;;;;;;5019975;28;845;-73
2022/10/12 13:11:27;;;;;;;;;;;;;;;;;;4996727;28;3825;-73
2022/10/12 13:13:56;;;;;;;;;;;;;;;;;;5014158;28;886;-73
2022/10/12 13:16:40;;;;;;;;;;;;;;;;;;5013903;28;1032;-74
2022/10/12 13:19:10;;;;;;;;;;;;;;;;;;4996543;28;1240;-73
2022/10/12 13:21:37;;;;;;;;;;;;;;;;;;4995990;28;1886;-73
2022/10/12 13:24:14;;;;;;;;;;;;;;;;;;5013864;28;1111;-72
2022/10/12 13:26:42;;;;;;;;;;;;;;;;;;5013465;28;889;-72
2022/10/12 13:29:18;;;;;;;;;;;;;;;;;;4996288;28;1239;-72
2022/10/12 13:31:45;;;;;;;;;;;;;;;;;;5013058;28;1348;-72
2022/10/12 13:34:13;;;;;;;;;;;;;;;;;;4996262;28;1300;-72
2022/10/12 13:36:48;;;;;;;;;;;;;;;;;;5013738;28;845;-72
2022/10/12 13:39:15;;;;;;;;;;;;;;;;;;4996591;28;1213;-73
2022/10/12 13:41:40;;;;;;;;;;;;;;;;;;4995962;28;1910;-72
2022/10/12 13:44:06;;;;;;;;;;;;;;;;;;5014148;28;963;-72
2022/10/12 13:46:31;;;;;;;;;;;;;;;;;;4996149;28;1296;-72
2022/10/12 13:48:56;;;;;;;;;;;;;;;;;;4996586;28;1201;-73
2022/10/12 13:51:23;;;;;;;;;;;;;;;;;;5013759;28;838;-74
2022/10/12 13:53:49;;;;;;;;;;;;;;;;;;5013108;28;889;-72
2022/10/12 13:56:19;;;;;;;;;;;;;;;;;;4995547;28;1171;-73
2022/10/12 13:58:45;;;;;;;;;;;;;;;;;;4995224;28;1264;-73
2022/10/12 14:01:11;;;;;;;;;;;;;;;;;;4995253;28;1276;-73
2022/10/12 14:03:38;;;;;;;;;;;;;;;;;;4994461;28;1902;-72
2022/10/12 14:06:03;;;;;;;;;;;;;;;;;;4995399;28;1237;-72
2022/10/12 14:08:31;;;;;;;;;;;;;;;;;;4995545;28;1522;-74
2022/10/12 14:10:57;;;;;;;;;;;;;;;;;;4995124;28;1228;-74
2022/10/12 14:13:30;;;;;;;;;;;;;;;;;;4999647;28;3817;-73
2022/10/12 14:15:56;;;;;;;;;;;;;;;;;;5010909;28;1279;-73
2022/10/12 14:18:32;;;;;;;;;;;;;;;;;;5012792;28;1032;-73
2022/10/12 14:21:21;;;;;;;;;;;;;;;;;;5012944;28;963;-73
2022/10/12 14:23:48;;;;;;;;;;;;;;;;;;5012161;28;1906;-73
2022/10/12 14:26:31;;;;;;;;;;;;;;;;;;5011598;28;1327;-72
2022/10/12 14:28:57;;;;;;;;;;;;;;;;;;5012753;28;968;-67
2022/10/12 14:31:41;;;;;;;;;;;;;;;;;;5012014;28;822;-74
2022/10/12 14:34:25;;;;;;;;;;;;;;;;;;5010885;28;1011;-69
2022/10/12 14:37:01;;;;;;;;;;;;;;;;;;5004202;28;1398;-67
2022/10/12 14:39:27;;;;;;;;;;;;;;;;;;5013590;28;1448;-73
2022/10/12 14:41:52;;;;;;;;;;;;;;;;;;5013905;28;1989;-71
2022/10/12 14:44:18;;;;;;;;;;;;;;;;;;5014609;28;1219;-72
2022/10/12 14:47:10;;;;;;;;;;;;;;;;;;5013414;28;1240;-70
2022/10/12 14:49:45;;;;;;;;;;;;;;;;;;5031145;28;837;-71
2022/10/12 14:52:19;;;;;;;;;;;;;;;;;;5014451;28;1229;-72
2022/10/12 14:54:48;;;;;;;;;;;;;;;;;;5012452;28;1299;-69
2022/10/12 14:57:15;;;;;;;;;;;;;;;;;;5031702;28;814;-72
2022/10/12 14:59:40;;;;;;;;;;;;;;;;;;5031587;28;609;-71
2022/10/12 15:02:16;;;;;;;;;;;;;;;;;;5031439;28;1973;-70
2022/10/12 15:04:41;;;;;;;;;;;;;;;;;;5032477;28;822;-72
2022/10/12 15:07:12;;;;;;;;;;;;;;;;;;5015020;28;1375;-73
2022/10/12 15:09:37;;;;;;;;;;;;;;;;;;5032360;28;901;-71
2022/10/12 15:12:03;;;;;;;;;;;;;;;;;;5010715;28;3769;-72
2022/10/12 15:14:28;;;;;;;;;;;;;;;;;;5012105;28;3272;-71
2022/10/12 15:16:53;;;;;;;;;;;;;;;;;;5027492;28;1039;-72
2022/10/12 15:19:19;;;;;;;;;;;;;;;;;;5012730;28;786;-71
2022/10/12 15:21:44;;;;;;;;;;;;;;;;;;5027417;28;1910;-73
2022/10/12 15:24:13;;;;;;;;;;;;;;;;;;5027797;28;1372;-71
2022/10/12 15:26:39;;;;;;;;;;;;;;;;;;5009562;28;1410;-70
2022/10/12 15:29:04;;;;;;;;;;;;;;;;;;5010356;28;1292;-72
2022/10/12 15:31:29;;;;;;;;;;;;;;;;;;4993760;28;1292;-72
2022/10/12 15:33:55;;;;;;;;;;;;;;;;;;5025709;28;1181;-70
2022/10/12 15:36:20;;;;;;;;;;;;;;;;;;5026789;28;1063;-72
2022/10/12 15:38:45;;;;;;;;;;;;;;;;;;5026217;28;1374;-68
2022/10/12 15:41:15;;;;;;;;;;;;;;;;;;5011897;28;1238;-72
2022/10/12 15:43:41;;;;;;;;;;;;;;;;;;5011990;28;1975;-72
2022/10/12 15:46:08;;;;;;;;;;;;;;;;;;4994420;28;1141;-72
2022/10/12 15:48:34;;;;;;;;;;;;;;;;;;5010002;28;1359;-74
2022/10/12 15:50:59;;;;;;;;;;;;;;;;;;5011987;28;861;-72
2022/10/12 15:53:25;;;;;;;;;;;;;;;;;;5011724;28;841;-73
2022/10/12 15:55:53;;;;;;;;;;;;;;;;;;5011345;28;877;-69
2022/10/12 15:58:19;;;;;;;;;;;;;;;;;;5011819;28;845;-69
2022/10/12 16:00:44;;;;;;;;;;;;;;;;;;5024516;28;924;-69
2022/10/12 16:03:17;;;;;;;;;;;;;;;;;;4993238;28;2029;-69
2022/10/12 16:05:42;;;;;;;;;;;;;;;;;;5010114;28;766;-68
2022/10/12 16:08:07;;;;;;;;;;;;;;;;;;5029417;28;829;-68
2022/10/12 16:10:35;;;;;;;;;;;;;;;;;;5029979;28;897;-68
2022/10/12 16:13:03;;;;;;;;;;;;;;;;;;5014532;28;841;-68
2022/10/12 16:15:30;;;;;;;;;;;;;;;;;;5029622;28;1449;-67
2022/10/12 16:17:55;;;;;;;;;;;;;;;;;;5029040;28;1082;-68
2022/10/12 16:20:21;;;;;;;;;;;;;;;;;;5014382;28;825;-68
2022/10/12 16:22:47;;;;;;;;;;;;;;;;;;5013308;28;1886;-68
2022/10/12 16:25:13;;;;;;;;;;;;;;;;;;5014569;28;864;-67
2022/10/12 16:27:38;;;;;;;;;;;;;;;;;;5029175;28;1216;-67
2022/10/12 16:30:05;;;;;;;;;;;;;;;;;;5012952;28;1303;-67
2022/10/12 16:32:30;;;;;;;;;;;;;;;;;;5012488;28;1156;-67
2022/10/12 16:34:56;;;;;;;;;;;;;;;;;;5013830;28;830;-68
2022/10/12 16:37:21;;;;;;;;;;;;;;;;;;5029181;28;1199;-67
2022/10/12 16:39:46;;;;;;;;;;;;;;;;;;5013453;28;921;-68
2022/10/12 16:42:11;;;;;;;;;;;;;;;;;;5029652;28;1914;-67
2022/10/12 16:44:37;;;;;;;;;;;;;;;;;;5012309;28;1118;-67
2022/10/12 16:47:04;;;;;;;;;;;;;;;;;;5013850;28;1106;-69
2022/10/12 16:49:29;;;;;;;;;;;;;;;;;;5015317;28;814;-70
2022/10/12 16:51:54;;;;;;;;;;;;;;;;;;5014498;28;834;-69
2022/10/12 16:54:20;;;;;;;;;;;;;;;;;;5014782;28;877;-69
2022/10/12 16:56:45;;;;;;;;;;;;;;;;;;5014083;28;883;-69
2022/10/12 16:59:11;;;;;;;;;;;;;;;;;;5013316;28;1215;-68
2022/10/12 17:01:36;;;;;;;;;;;;;;;;;;5014998;28;3801;-69
2022/10/12 17:04:01;;;;;;;;;;;;;;;;;;5014009;28;1967;-68
2022/10/12 17:06:27;;;;;;;;;;;;;;;;;;5014400;28;1047;-68
2022/10/12 17:08:53;;;;;;;;;;;;;;;;;;5013915;28;873;-69
2022/10/12 17:11:20;;;;;;;;;;;;;;;;;;5014811;28;877;-69
2022/10/12 17:13:45;;;;;;;;;;;;;;;;;;5012366;28;1371;-68
2022/10/12 17:18:56;;;;;;;;;;;;;;;;;;5012091;28;624;-69
2022/10/12 17:21:21;;;;;;;;;;;;;;;;;;5012449;28;1268;-70